Time;durP1;ratioP1;P1;durP2;ratioP2;P2;SDS_P1;SDS_P2;PMS_P1;PMS_P2;Temp;Humidity;BMP_temperature;BMP_pressure;BME280_temperature;BME280_humidity;BME280_pressure;Samples;Min_cycle;Max_cycle;Signal;HPM_P1;HPM_P2
2022/07/13 00:01:30;;;;;;;1.67;1.57;;;16.30;99.90;;;;;;4993664;28;20444;-92
2022/07/13 00:03:57;;;;;;;1.97;1.77;;;16.20;99.90;;;;;;4992714;28;20543;-92
2022/07/13 00:06:22;;;;;;;1.80;1.70;;;16.20;99.90;;;;;;4994076;28;20962;-91
2022/07/13 00:08:48;;;;;;;2.97;1.53;;;16.30;99.90;;;;;;4984321;28;20455;-93
2022/07/13 00:11:13;;;;;;;1.80;1.70;;;16.30;99.90;;;;;;4983246;28;20173;-93
2022/07/13 00:13:39;;;;;;;2.27;1.73;;;16.30;99.90;;;;;;4993116;28;20193;-92
2022/07/13 00:16:05;;;;;;;1.70;1.60;;;16.30;99.90;;;;;;4990869;28;20519;-93
2022/07/13 00:18:31;;;;;;;5.30;1.83;;;16.40;99.90;;;;;;4995506;28;20227;-91
2022/07/13 00:20:57;;;;;;;2.33;1.60;;;16.60;99.90;;;;;;5011968;28;20204;-92
2022/07/13 00:23:23;;;;;;;2.77;2.07;;;16.60;99.90;;;;;;4982792;28;20867;-91
2022/07/13 00:25:49;;;;;;;1.70;1.60;;;16.70;99.90;;;;;;4988482;28;20785;-92
2022/07/13 00:28:14;;;;;;;1.93;1.60;;;16.70;99.90;;;;;;4986784;28;20455;-92
2022/07/13 00:30:41;;;;;;;1.57;1.47;;;16.70;99.90;;;;;;4992032;28;20605;-92
2022/07/13 00:33:08;;;;;;;1.80;1.70;;;16.80;99.90;;;;;;4991198;28;21202;-92
2022/07/13 00:35:35;;;;;;;1.60;1.50;;;16.90;99.90;;;;;;4992797;28;20440;-93
2022/07/13 00:38:00;;;;;;;1.83;1.70;;;16.80;99.90;;;;;;4973456;28;20470;-92
2022/07/13 00:40:27;;;;;;;2.00;1.80;;;16.70;99.90;;;;;;4993140;28;21077;-92
2022/07/13 00:42:52;;;;;;;2.03;1.93;;;16.70;99.90;;;;;;4998479;28;20215;-92
2022/07/13 00:45:19;;;;;;;2.93;2.10;;;16.70;99.90;;;;;;4992496;28;20512;-91
2022/07/13 00:47:49;;;;;;;1.50;1.40;;;16.60;99.90;;;;;;5008186;28;20183;-91
2022/07/13 00:50:15;;;;;;;1.70;1.60;;;16.60;99.90;;;;;;4993346;28;20463;-93
2022/07/13 00:52:41;;;;;;;2.40;1.60;;;16.70;99.90;;;;;;4993193;28;20450;-91
2022/07/13 00:55:08;;;;;;;2.10;2.00;;;16.60;99.90;;;;;;4994597;28;20443;-91
2022/07/13 00:57:36;;;;;;;2.00;1.63;;;16.60;99.90;;;;;;4994685;28;20451;-91
2022/07/13 01:00:06;;;;;;;2.40;1.70;;;16.60;99.90;;;;;;4999261;28;20479;-91
2022/07/13 01:02:31;;;;;;;1.80;1.70;;;16.60;99.90;;;;;;5009553;28;20423;-91
2022/07/13 01:04:58;;;;;;;2.00;1.90;;;16.70;99.90;;;;;;4986150;28;21036;-91
2022/07/13 01:07:24;;;;;;;2.07;1.87;;;16.60;99.90;;;;;;4981621;28;20189;-90
2022/07/13 01:09:50;;;;;;;1.83;1.73;;;16.60;99.90;;;;;;4989893;28;20455;-90
2022/07/13 01:12:16;;;;;;;2.13;2.00;;;16.50;99.90;;;;;;4990181;28;20450;-90
2022/07/13 01:14:42;;;;;;;2.20;1.93;;;16.50;99.90;;;;;;4984743;28;20280;-91
2022/07/13 01:17:09;;;;;;;2.00;1.90;;;16.50;99.90;;;;;;4991954;28;20219;-92
2022/07/13 01:19:35;;;;;;;1.70;1.60;;;16.30;99.90;;;;;;4988883;28;20486;-91
2022/07/13 01:22:02;;;;;;;2.20;1.80;;;16.30;99.90;;;;;;4992482;28;20464;-91
2022/07/13 01:24:32;;;;;;;2.20;2.10;;;16.30;99.90;;;;;;4988493;28;20779;-91
2022/07/13 01:26:59;;;;;;;2.93;2.13;;;16.40;99.90;;;;;;4999291;28;20438;-89
2022/07/13 01:29:25;;;;;;;2.17;1.97;;;16.40;99.90;;;;;;4986633;28;20868;-89
2022/07/13 01:31:50;;;;;;;2.17;1.90;;;16.30;99.90;;;;;;4990925;28;20483;-89
2022/07/13 01:34:17;;;;;;;1.77;1.67;;;16.20;99.90;;;;;;4981669;28;23949;-89
2022/07/13 01:36:44;;;;;;;1.90;1.70;;;16.10;99.90;;;;;;4988291;28;20212;-89
2022/07/13 01:39:09;;;;;;;1.93;1.83;;;16.10;99.90;;;;;;4985303;28;20461;-89
2022/07/13 01:41:35;;;;;;;2.23;2.03;;;16.10;99.90;;;;;;4992223;28;20435;-89
2022/07/13 01:44:00;;;;;;;1.97;1.87;;;16.10;99.90;;;;;;5009309;28;20181;-89
2022/07/13 01:46:27;;;;;;;2.10;2.00;;;16.10;99.90;;;;;;4994104;28;20394;-89
2022/07/13 01:48:55;;;;;;;2.70;2.50;;;15.90;99.90;;;;;;4988584;28;20180;-89
2022/07/13 01:51:21;;;;;;;2.17;1.97;;;15.90;99.90;;;;;;4990054;28;20502;-90
2022/07/13 01:53:47;;;;;;;2.27;2.07;;;15.80;99.90;;;;;;4983775;28;20455;-88
2022/07/13 01:56:13;;;;;;;2.00;1.90;;;15.80;99.90;;;;;;4977484;28;20467;-89
2022/07/13 01:58:39;;;;;;;2.03;1.93;;;15.60;99.90;;;;;;4969900;28;20227;-88
2022/07/13 02:01:05;;;;;;;2.80;2.50;;;15.50;99.90;;;;;;4978529;28;20197;-90
2022/07/13 02:03:32;;;;;;;2.33;2.13;;;15.50;99.90;;;;;;4985501;28;20442;-90
2022/07/13 02:05:58;;;;;;;2.60;2.40;;;15.50;99.90;;;;;;4975697;28;20184;-89
2022/07/13 02:08:25;;;;;;;3.17;2.40;;;15.60;99.90;;;;;;4975624;28;20813;-89
2022/07/13 02:10:51;;;;;;;3.60;2.30;;;15.50;99.90;;;;;;4976322;28;20823;-89
2022/07/13 02:13:16;;;;;;;2.87;1.90;;;15.50;99.90;;;;;;4970846;28;20477;-89
2022/07/13 02:15:43;;;;;;;2.00;1.90;;;15.50;99.90;;;;;;4991993;28;20282;-91
2022/07/13 02:18:08;;;;;;;2.20;2.10;;;15.50;99.90;;;;;;4998312;28;20580;-89
2022/07/13 02:20:35;;;;;;;2.50;2.33;;;15.60;99.90;;;;;;4986003;28;20483;-89
2022/07/13 02:23:01;;;;;;;2.90;2.27;;;15.60;99.90;;;;;;4985758;28;20226;-88
2022/07/13 02:25:26;;;;;;;2.67;2.47;;;15.60;99.90;;;;;;4986772;28;21383;-89
2022/07/13 02:27:52;;;;;;;3.77;2.13;;;15.60;99.90;;;;;;4982495;28;20197;-90
2022/07/13 02:30:17;;;;;;;4.03;2.20;;;15.60;99.90;;;;;;4984275;28;20687;-90
2022/07/13 02:32:44;;;;;;;2.03;1.93;;;15.60;99.90;;;;;;4978321;28;20213;-89
2022/07/13 02:35:10;;;;;;;2.27;2.17;;;15.60;99.90;;;;;;4986377;28;20189;-90
2022/07/13 02:37:37;;;;;;;3.73;2.10;;;15.70;99.90;;;;;;5001424;28;21762;-90
2022/07/13 02:40:04;;;;;;;2.60;1.93;;;15.60;99.90;;;;;;4985761;28;20475;-89
2022/07/13 02:42:29;;;;;;;2.27;2.03;;;15.60;99.90;;;;;;4984931;28;20755;-89
2022/07/13 02:44:56;;;;;;;2.17;1.97;;;15.60;99.90;;;;;;5003680;28;20450;-89
2022/07/13 02:47:22;;;;;;;2.10;2.00;;;15.60;99.90;;;;;;5003258;28;20540;-88
2022/07/13 02:49:48;;;;;;;2.60;2.40;;;15.50;99.90;;;;;;4987455;28;20868;-89
2022/07/13 02:52:13;;;;;;;2.50;2.10;;;15.40;99.90;;;;;;4989172;28;21350;-89
2022/07/13 02:54:39;;;;;;;3.13;1.97;;;15.40;99.90;;;;;;4985465;28;20223;-90
2022/07/13 02:57:07;;;;;;;2.07;1.93;;;15.50;99.90;;;;;;4984985;28;20184;-89
2022/07/13 02:59:35;;;;;;;2.00;1.90;;;15.50;99.90;;;;;;4986114;28;20223;-89
2022/07/13 03:02:02;;;;;;;2.30;2.20;;;15.50;99.90;;;;;;4980648;28;20458;-89
2022/07/13 03:04:28;;;;;;;2.50;2.30;;;15.50;99.90;;;;;;4996369;28;20436;-90
2022/07/13 03:06:54;;;;;;;2.90;2.03;;;15.40;99.90;;;;;;4980775;28;20444;-89
2022/07/13 03:09:19;;;;;;;2.70;2.50;;;15.30;99.90;;;;;;5007018;28;20235;-89
2022/07/13 03:11:45;;;;;;;2.40;2.30;;;15.20;99.90;;;;;;4987174;28;20497;-91
2022/07/13 03:14:10;;;;;;;2.63;2.47;;;15.20;99.90;;;;;;4975446;28;20181;-91
2022/07/13 03:16:36;;;;;;;1.97;1.87;;;15.20;99.90;;;;;;4984392;28;23571;-90
2022/07/13 03:19:01;;;;;;;2.07;1.87;;;15.20;99.90;;;;;;4983649;28;20295;-89
2022/07/13 03:21:29;;;;;;;2.13;2.03;;;15.20;99.90;;;;;;4989836;28;20220;-89
2022/07/13 03:23:55;;;;;;;2.83;2.50;;;15.20;99.90;;;;;;4985501;28;20200;-90
2022/07/13 03:26:21;;;;;;;2.47;2.23;;;15.10;99.90;;;;;;4983599;28;20440;-89
2022/07/13 03:28:47;;;;;;;3.00;2.27;;;15.10;99.90;;;;;;4988087;28;20454;-90
2022/07/13 03:31:12;;;;;;;2.00;1.90;;;15.00;99.90;;;;;;4982668;28;20613;-91
2022/07/13 03:33:38;;;;;;;2.50;2.23;;;14.90;99.90;;;;;;4977974;28;20184;-89
2022/07/13 03:36:04;;;;;;;2.57;2.00;;;14.90;99.90;;;;;;4981605;28;20193;-90
2022/07/13 03:38:29;;;;;;;3.53;2.00;;;15.00;99.90;;;;;;4988813;28;20184;-90
2022/07/13 03:40:55;;;;;;;4.80;2.77;;;15.00;99.90;;;;;;4984908;28;20537;-90
2022/07/13 03:43:20;;;;;;;2.80;2.60;;;15.00;99.90;;;;;;4984928;28;20555;-90
2022/07/13 03:45:46;;;;;;;2.50;2.27;;;15.00;99.90;;;;;;4980854;28;20188;-89
2022/07/13 03:48:13;;;;;;;2.20;2.10;;;15.00;99.90;;;;;;4980707;28;20553;-88
2022/07/13 03:50:39;;;;;;;2.67;2.20;;;15.00;99.90;;;;;;4979940;28;20576;-87
2022/07/13 03:53:05;;;;;;;2.10;2.00;;;14.90;99.90;;;;;;4984869;28;20624;-89
2022/07/13 03:55:31;;;;;;;4.40;2.57;;;15.00;99.90;;;;;;4982196;28;20916;-90
2022/07/13 03:57:56;;;;;;;3.80;2.23;;;15.00;99.90;;;;;;4996264;28;20448;-89
2022/07/13 04:00:22;;;;;;;3.03;2.20;;;14.90;99.90;;;;;;4982373;28;20600;-90
2022/07/13 04:02:48;;;;;;;2.50;2.30;;;14.80;99.90;;;;;;4980490;28;20693;-89
2022/07/13 04:05:13;;;;;;;3.50;2.47;;;14.70;99.90;;;;;;4988508;28;20708;-89
2022/07/13 04:07:39;;;;;;;4.87;2.23;;;14.60;99.90;;;;;;4977964;28;20267;-89
2022/07/13 04:10:05;;;;;;;2.27;2.03;;;14.50;99.90;;;;;;4987361;28;20197;-89
2022/07/13 04:12:31;;;;;;;2.57;2.30;;;14.50;99.90;;;;;;4988095;28;20181;-90
2022/07/13 04:14:56;;;;;;;2.20;2.00;;;14.60;99.90;;;;;;4978205;28;20456;-90
2022/07/13 04:17:22;;;;;;;2.30;2.10;;;14.60;99.90;;;;;;4976760;28;20200;-89
2022/07/13 04:19:47;;;;;;;5.00;2.40;;;14.60;99.90;;;;;;4980701;28;20233;-89
2022/07/13 04:22:13;;;;;;;2.57;1.87;;;14.50;99.90;;;;;;4988781;28;20243;-88
2022/07/13 04:24:38;;;;;;;1.97;1.87;;;14.60;99.90;;;;;;4982595;28;20250;-88
2022/07/13 04:27:06;;;;;;;2.40;2.20;;;14.60;99.90;;;;;;5002079;28;20189;-88
2022/07/13 04:29:32;;;;;;;3.03;2.30;;;14.70;99.90;;;;;;4982310;28;20973;-90
2022/07/13 04:31:58;;;;;;;2.97;1.80;;;14.90;99.90;;;;;;4976664;28;20215;-89
2022/07/13 04:35:12;;;;;;;2.50;2.30;;;15.10;99.90;;;;;;4998332;28;20451;-88
2022/07/13 04:37:38;;;;;;;3.40;2.30;;;15.30;99.90;;;;;;4972717;28;20459;-88
2022/07/13 04:40:04;;;;;;;4.80;2.40;;;15.30;99.90;;;;;;4970834;28;20483;-87
2022/07/13 04:42:29;;;;;;;2.30;2.20;;;15.40;99.90;;;;;;4994029;28;20192;-88
2022/07/13 04:44:55;;;;;;;3.60;2.00;;;15.30;99.90;;;;;;4966988;28;20431;-88
2022/07/13 04:47:20;;;;;;;2.30;2.03;;;15.20;99.90;;;;;;4978085;28;20185;-88
2022/07/13 04:49:46;;;;;;;2.30;2.10;;;15.10;99.90;;;;;;4960273;28;20205;-88
2022/07/13 04:52:15;;;;;;;2.67;2.47;;;15.10;99.90;;;;;;4970900;28;20500;-88
2022/07/13 04:54:41;;;;;;;4.37;3.07;;;15.30;99.90;;;;;;4964690;28;20195;-87
2022/07/13 04:57:07;;;;;;;2.80;2.60;;;15.20;99.90;;;;;;4971802;28;20839;-89
2022/07/13 04:59:32;;;;;;;2.90;2.50;;;15.20;99.90;;;;;;4972801;28;20223;-89
2022/07/13 05:01:58;;;;;;;2.90;2.70;;;15.20;99.90;;;;;;4972067;28;20212;-89
2022/07/13 05:04:24;;;;;;;2.53;2.33;;;15.20;99.90;;;;;;4970552;28;20480;-89
2022/07/13 05:06:49;;;;;;;2.40;2.30;;;15.30;99.90;;;;;;4968652;28;20199;-90
2022/07/13 05:09:15;;;;;;;7.20;2.43;;;15.40;99.90;;;;;;4973742;28;20984;-89
2022/07/13 05:11:41;;;;;;;3.13;2.83;;;15.50;99.90;;;;;;4974702;28;20205;-89
2022/07/13 05:14:06;;;;;;;4.07;2.43;;;15.60;99.90;;;;;;4969033;28;20699;-89
2022/07/13 05:16:32;;;;;;;5.00;2.70;;;15.80;99.90;;;;;;4972022;28;20808;-89
2022/07/13 05:18:57;;;;;;;3.83;2.30;;;15.70;99.90;;;;;;4969074;28;20687;-90
2022/07/13 05:21:23;;;;;;;5.50;2.23;;;15.70;99.90;;;;;;4974047;28;20192;-89
2022/07/13 05:23:49;;;;;;;2.53;2.37;;;15.80;99.90;;;;;;4975747;28;20184;-89
2022/07/13 05:26:14;;;;;;;4.70;2.70;;;15.80;99.90;;;;;;4971641;28;20181;-89
2022/07/13 05:28:40;;;;;;;3.77;2.83;;;15.90;99.90;;;;;;4974069;28;20548;-89
2022/07/13 05:31:06;;;;;;;2.80;2.50;;;16.00;99.90;;;;;;4976441;28;20247;-89
2022/07/13 05:33:31;;;;;;;2.67;2.47;;;16.20;99.90;;;;;;4976814;28;20188;-88
2022/07/13 05:35:57;;;;;;;2.50;2.30;;;16.30;99.90;;;;;;4975841;28;20228;-90
2022/07/13 05:38:22;;;;;;;2.20;2.00;;;16.40;99.90;;;;;;4973916;28;20198;-90
2022/07/13 05:40:48;;;;;;;2.30;2.10;;;16.50;99.90;;;;;;4983051;28;20185;-89
2022/07/13 05:43:14;;;;;;;3.90;2.47;;;16.60;99.90;;;;;;4973842;28;20177;-88
2022/07/13 05:45:39;;;;;;;2.73;2.50;;;16.60;99.90;;;;;;4988886;28;20188;-89
2022/07/13 05:48:05;;;;;;;2.50;2.30;;;16.70;99.90;;;;;;4979724;28;21028;-91
2022/07/13 05:50:30;;;;;;;2.63;2.40;;;16.80;99.90;;;;;;5005525;28;20869;-89
2022/07/13 05:52:56;;;;;;;2.47;2.27;;;17.00;99.90;;;;;;4975975;28;20201;-89
2022/07/13 05:55:22;;;;;;;2.43;2.17;;;17.10;99.90;;;;;;4991417;28;20189;-89
2022/07/13 05:57:47;;;;;;;3.13;2.50;;;17.20;99.90;;;;;;4968458;28;20658;-90
2022/07/13 06:00:14;;;;;;;3.37;2.60;;;17.20;99.90;;;;;;4983948;28;20217;-90
2022/07/13 06:02:43;;;;;;;3.90;2.30;;;17.30;99.90;;;;;;4975760;28;20283;-91
2022/07/13 06:05:09;;;;;;;2.90;2.70;;;17.40;99.90;;;;;;4989807;28;20452;-91
2022/07/13 06:07:35;;;;;;;3.10;2.80;;;17.40;99.90;;;;;;4995507;28;20856;-90
2022/07/13 06:10:01;;;;;;;2.40;2.20;;;17.50;99.90;;;;;;4989182;28;20501;-91
2022/07/13 06:12:30;;;;;;;4.50;2.30;;;17.50;99.90;;;;;;4980237;28;20555;-91
2022/07/13 06:14:55;;;;;;;1.80;1.70;;;17.50;99.90;;;;;;4974393;28;20196;-90
2022/07/13 06:17:21;;;;;;;2.30;2.10;;;17.60;99.90;;;;;;4981159;28;20514;-91
2022/07/13 06:19:47;;;;;;;2.57;1.73;;;17.70;99.90;;;;;;4992580;28;20227;-91
2022/07/13 06:22:13;;;;;;;2.23;2.03;;;17.80;99.90;;;;;;4966718;28;20186;-91
2022/07/13 06:24:38;;;;;;;2.23;1.80;;;17.90;99.90;;;;;;4974768;28;20187;-90
2022/07/13 06:27:04;;;;;;;5.63;3.30;;;17.90;99.90;;;;;;4984943;28;20220;-93
2022/07/13 06:29:30;;;;;;;8.33;7.73;;;18.00;99.90;;;;;;4977741;28;20231;-92
2022/07/13 06:31:55;;;;;;;28.47;25.83;;;18.10;99.90;;;;;;4976436;28;20184;-91
2022/07/13 06:34:21;;;;;;;1.93;1.83;;;18.40;99.90;;;;;;4974829;28;20193;-89
2022/07/13 06:36:46;;;;;;;2.23;1.50;;;18.40;99.90;;;;;;4977464;28;20181;-90
2022/07/13 06:39:12;;;;;;;2.03;1.83;;;18.30;99.90;;;;;;4981642;28;20267;-90
2022/07/13 06:41:38;;;;;;;66.03;9.80;;;18.30;99.90;;;;;;4978773;28;20189;-90
2022/07/13 06:44:03;;;;;;;2.30;2.10;;;18.40;99.90;;;;;;5017658;28;20177;-91
2022/07/13 06:46:29;;;;;;;4.07;1.90;;;18.60;99.90;;;;;;4986788;28;20193;-90
2022/07/13 06:48:54;;;;;;;2.37;2.17;;;18.70;99.90;;;;;;4988546;28;20275;-91
2022/07/13 06:51:20;;;;;;;12.80;2.70;;;18.80;99.90;;;;;;4983859;28;20239;-90
2022/07/13 06:53:45;;;;;;;1.90;1.70;;;19.00;99.90;;;;;;4986864;28;20201;-90
2022/07/13 06:56:11;;;;;;;2.10;1.90;;;19.10;99.90;;;;;;4984803;28;20185;-91
2022/07/13 06:58:37;;;;;;;3.20;2.30;;;19.40;99.90;;;;;;4986793;28;20180;-88
2022/07/13 07:01:03;;;;;;;2.00;1.90;;;19.60;99.90;;;;;;4987281;28;20185;-89
2022/07/13 07:03:29;;;;;;;4.23;2.10;;;19.70;99.90;;;;;;4998449;28;20487;-91
2022/07/13 07:05:55;;;;;;;2.33;1.90;;;19.70;99.90;;;;;;5013155;28;20452;-91
2022/07/13 07:08:21;;;;;;;25.20;4.00;;;19.80;99.90;;;;;;4998666;28;20374;-89
2022/07/13 07:10:47;;;;;;;4.13;1.70;;;19.80;99.90;;;;;;4982534;28;20540;-88
2022/07/13 07:13:13;;;;;;;2.07;1.97;;;19.90;99.90;;;;;;4985215;28;20204;-90
2022/07/13 07:15:39;;;;;;;1.93;1.83;;;19.90;99.90;;;;;;4985853;28;20958;-89
2022/07/13 07:18:05;;;;;;;2.13;1.73;;;20.00;99.90;;;;;;4978550;28;20783;-89
2022/07/13 07:20:30;;;;;;;2.20;2.10;;;19.90;99.90;;;;;;4987059;28;20279;-90
2022/07/13 07:22:56;;;;;;;3.10;2.27;;;20.00;99.90;;;;;;4981757;28;20451;-90
2022/07/13 07:25:21;;;;;;;2.33;1.80;;;20.20;99.90;;;;;;4982121;28;20191;-89
2022/07/13 07:27:48;;;;;;;2.10;1.77;;;20.10;99.90;;;;;;4982782;28;20200;-89
2022/07/13 07:30:13;;;;;;;5.67;2.30;;;20.10;99.90;;;;;;4982240;28;20271;-89
2022/07/13 07:32:39;;;;;;;4.23;1.70;;;20.00;99.90;;;;;;4981273;28;20522;-87
2022/07/13 07:35:09;;;;;;;8.93;2.73;;;20.40;99.90;;;;;;4983494;28;20200;-88
2022/07/13 07:37:37;;;;;;;1.90;1.80;;;20.50;99.90;;;;;;5005014;28;20191;-88
2022/07/13 07:40:06;;;;;;;69.27;6.87;;;20.80;99.90;;;;;;4996784;28;20479;-87
2022/07/13 07:42:35;;;;;;;1.63;1.53;;;21.10;99.90;;;;;;4982192;28;20436;-89
2022/07/13 07:45:01;;;;;;;2.50;1.80;;;21.30;99.20;;;;;;4982222;28;20510;-88
2022/07/13 07:47:26;;;;;;;2.20;1.47;;;21.50;99.50;;;;;;4978101;28;20185;-89
2022/07/13 07:55:06;;;;;;;1.97;1.57;;;21.90;99.90;;;;;;5487509;23;20479;-95
2022/07/13 07:58:04;;;;;;;1.63;1.53;;;22.50;99.90;;;;;;4998394;28;20437;-96
2022/07/13 08:00:44;;;;;;;1.60;1.50;;;22.40;99.80;;;;;;5013523;28;20470;-96
2022/07/13 08:03:25;;;;;;;1.70;1.60;;;22.70;99.80;;;;;;5003825;28;20444;-96
2022/07/13 08:06:02;;;;;;;1.40;1.30;;;22.90;99.20;;;;;;4989096;28;20783;-96
2022/07/13 08:08:44;;;;;;;161.07;13.53;;;23.10;98.00;;;;;;5012230;28;20458;-96
2022/07/13 08:11:23;;;;;;;1.70;1.60;;;23.20;97.50;;;;;;5007736;28;20457;-96
2022/07/13 08:14:05;;;;;;;1.77;1.67;;;23.20;98.20;;;;;;5014275;28;20448;-96
2022/07/13 08:16:34;;;;;;;4.13;1.57;;;23.50;97.50;;;;;;5167639;23;20226;-96
2022/07/13 08:19:15;;;;;;;2.50;1.40;;;24.00;98.30;;;;;;4957572;28;20490;-96
2022/07/13 08:21:44;;;;;;;1.93;1.47;;;24.50;96.10;;;;;;4973853;28;20441;-95
2022/07/13 08:24:14;;;;;;;1.70;1.60;;;24.00;94.90;;;;;;4981323;28;20445;-95
2022/07/13 08:26:40;;;;;;;1.63;1.53;;;24.20;95.50;;;;;;5003515;28;20445;-94
2022/07/13 08:29:06;;;;;;;4.70;1.30;;;24.90;94.90;;;;;;4964987;28;20450;-95
2022/07/13 08:31:31;;;;;;;1.23;1.10;;;25.20;94.00;;;;;;4965731;28;20178;-96
2022/07/13 08:39:25;;;;;;;1.70;1.50;;;24.90;90.50;;;;;;4957923;28;20891;-94
2022/07/13 08:41:51;;;;;;;1.67;1.40;;;25.20;90.70;;;;;;4954648;28;20441;-95
2022/07/13 08:44:17;;;;;;;1.17;1.17;;;25.30;90.30;;;;;;4965825;28;20962;-96
2022/07/13 08:46:43;;;;;;;1.00;1.00;;;25.80;86.70;;;;;;4976630;28;20182;-96
2022/07/13 08:49:09;;;;;;;6.47;1.50;;;26.00;89.20;;;;;;4987364;28;20202;-96
2022/07/13 08:52:02;;;;;;;1.57;1.40;;;26.00;88.00;;;;;;4983129;28;20485;-96
2022/07/13 08:54:29;;;;;;;2.80;1.20;;;26.00;82.20;;;;;;4971070;28;20568;-96
2022/07/13 08:56:55;;;;;;;3.47;1.23;;;25.80;81.60;;;;;;4970282;28;20446;-96
2022/07/13 08:59:21;;;;;;;1.30;1.30;;;25.80;83.10;;;;;;4970698;28;20532;-96
2022/07/13 09:01:49;;;;;;;1.40;1.30;;;25.80;82.50;;;;;;4990178;28;20198;-96
2022/07/13 09:04:14;;;;;;;1.87;1.30;;;26.00;82.70;;;;;;4983898;28;20182;-96
2022/07/13 09:06:44;;;;;;;1.60;1.40;;;26.00;81.20;;;;;;4976238;28;20464;-95
2022/07/13 09:09:35;;;;;;;2.30;1.20;;;26.00;79.90;;;;;;4954945;28;23286;-94
2022/07/13 09:12:16;;;;;;;1.87;1.23;;;26.00;81.20;;;;;;4990852;28;20473;-96
2022/07/13 09:14:43;;;;;;;1.30;1.20;;;26.10;79.60;;;;;;4974830;28;20453;-96
2022/07/13 09:23:28;;;;;;;1.57;1.47;;;26.70;78.00;;;;;;5006765;28;20485;-95
2022/07/13 09:26:08;;;;;;;1.23;1.23;;;26.90;80.20;;;;;;5127788;22;20498;-93
2022/07/13 09:28:53;;;;;;;2.57;1.47;;;26.70;79.90;;;;;;5007523;28;20457;-96
2022/07/13 09:31:25;;;;;;;2.00;1.37;;;26.60;80.20;;;;;;4982775;28;20447;-94
2022/07/13 09:33:54;;;;;;;4.30;1.50;;;26.70;78.60;;;;;;5007293;28;20431;-93
2022/07/13 09:36:25;;;;;;;1.40;1.30;;;27.00;81.20;;;;;;5005004;28;20443;-94
2022/07/13 09:38:53;;;;;;;1.40;1.40;;;26.90;79.40;;;;;;5004653;28;20478;-94
2022/07/13 09:41:24;;;;;;;4.70;1.73;;;26.80;79.70;;;;;;5001338;28;20445;-96
2022/07/13 09:46:54;;;;;;;1.60;1.50;;;26.50;83.00;;;;;;5004339;28;21408;-94
2022/07/13 09:49:41;;;;;;;1.40;1.30;;;26.70;78.00;;;;;;5014842;28;20447;-94
2022/07/13 09:52:08;;;;;;;1.63;1.20;;;26.70;76.10;;;;;;5006287;28;20781;-95
2022/07/13 09:54:37;;;;;;;1.40;1.30;;;26.90;75.00;;;;;;5007373;28;20975;-96
2022/07/13 09:57:12;;;;;;;2.30;1.47;;;27.00;75.80;;;;;;4998824;28;20952;-96
2022/07/13 09:59:41;;;;;;;1.63;1.53;;;27.30;77.90;;;;;;5017447;28;20586;-95
2022/07/13 10:02:07;;;;;;;1.83;1.60;;;27.90;74.60;;;;;;5008959;28;20441;-96
2022/07/13 10:04:37;;;;;;;1.60;1.50;;;27.60;75.60;;;;;;5016544;28;20530;-96
2022/07/13 10:28:05;;;;;;;1.40;1.30;;;27.60;70.30;;;;;;4949295;28;21165;-96
2022/07/13 10:30:31;;;;;;;1.50;1.43;;;27.90;77.00;;;;;;4919933;28;20550;-96
2022/07/13 10:33:21;;;;;;;1.80;1.70;;;28.00;81.10;;;;;;4917385;28;21217;-95
2022/07/13 10:35:50;;;;;;;1.73;1.50;;;28.10;78.50;;;;;;4927931;28;20454;-93
2022/07/13 10:38:27;;;;;;;4.73;1.40;;;28.10;79.50;;;;;;4922822;28;20538;-92
2022/07/13 10:41:19;;;;;;;2.50;1.40;;;28.00;73.60;;;;;;4909530;28;21116;-95
2022/07/13 10:44:02;;;;;;;1.20;1.20;;;28.20;71.20;;;;;;4910429;28;20474;-90
2022/07/13 10:46:52;;;;;;;1.50;1.30;;;28.40;68.70;;;;;;4902873;28;20439;-92
2022/07/13 10:49:51;;;;;;;1.37;1.27;;;28.40;65.10;;;;;;4935201;28;20452;-94
2022/07/13 10:52:25;;;;;;;1.20;1.10;;;28.40;70.80;;;;;;4914627;28;21814;-96
2022/07/13 10:55:03;;;;;;;1.17;1.17;;;28.40;66.40;;;;;;4937054;28;20442;-90
2022/07/13 10:57:39;;;;;;;3.33;1.37;;;28.40;67.50;;;;;;4930170;28;20446;-94
2022/07/13 11:00:19;;;;;;;1.20;1.10;;;28.40;70.00;;;;;;4932808;28;20962;-93
2022/07/13 11:02:54;;;;;;;1.70;1.60;;;28.60;64.50;;;;;;4926467;28;20893;-91
2022/07/13 11:05:29;;;;;;;1.37;1.27;;;28.60;66.80;;;;;;4915426;28;20445;-96
2022/07/13 11:07:55;;;;;;;1.17;1.17;;;28.60;67.20;;;;;;4910084;28;20470;-94
2022/07/13 11:10:26;;;;;;;1.40;1.30;;;28.80;66.60;;;;;;4936697;28;20987;-93
2022/07/13 11:13:04;;;;;;;1.63;1.30;;;28.90;63.90;;;;;;4952531;28;20454;-93
2022/07/13 11:15:52;;;;;;;1.47;1.37;;;28.80;63.00;;;;;;4922522;28;20812;-92
2022/07/13 11:18:21;;;;;;;1.27;1.27;;;28.90;64.50;;;;;;4918642;28;20481;-93
2022/07/13 11:21:12;;;;;;;1.87;1.37;;;29.10;62.30;;;;;;4927567;28;20482;-94
2022/07/13 11:26:53;;;;;;;1.53;1.43;;;29.70;64.60;;;;;;4922836;28;21027;-93
2022/07/13 11:29:24;;;;;;;1.30;1.30;;;30.00;59.30;;;;;;4932982;28;20474;-93
2022/07/13 11:32:00;;;;;;;1.93;1.50;;;29.90;60.00;;;;;;4924743;28;20442;-91
2022/07/13 11:34:27;;;;;;;1.53;1.43;;;29.90;59.70;;;;;;4904943;28;20565;-91
2022/07/13 11:37:04;;;;;;;1.20;1.20;;;29.80;58.90;;;;;;4900683;28;20458;-93
2022/07/13 11:39:46;;;;;;;1.50;1.40;;;29.80;59.80;;;;;;4897242;28;20483;-94
2022/07/13 11:42:12;;;;;;;1.40;1.30;;;30.00;62.90;;;;;;4908028;28;20783;-93
2022/07/13 11:44:37;;;;;;;1.60;1.50;;;30.20;58.60;;;;;;4918942;28;20445;-94
2022/07/13 11:47:05;;;;;;;1.50;1.37;;;30.30;56.90;;;;;;4912925;28;20475;-93
2022/07/13 11:49:46;;;;;;;1.40;1.30;;;30.70;55.80;;;;;;4913282;28;20277;-93
2022/07/13 11:52:38;;;;;;;1.10;1.10;;;30.70;55.00;;;;;;4901696;28;20454;-94
2022/07/13 11:55:05;;;;;;;3.30;1.10;;;30.20;55.90;;;;;;4898865;28;21753;-94
2022/07/13 11:57:33;;;;;;;1.40;1.30;;;30.50;58.20;;;;;;4913055;28;20448;-93
2022/07/13 12:00:02;;;;;;;1.37;1.30;;;30.80;57.90;;;;;;4922654;28;20494;-94
2022/07/13 12:02:28;;;;;;;3.53;1.60;;;30.70;55.00;;;;;;4946789;28;20446;-94
2022/07/13 12:04:53;;;;;;;11.23;1.50;;;30.70;55.20;;;;;;4896965;28;20938;-95
2022/07/13 12:07:21;;;;;;;6.13;1.40;;;31.10;52.60;;;;;;4930416;28;20683;-93
2022/07/13 12:09:49;;;;;;;1.47;1.37;;;31.40;55.30;;;;;;4906586;28;20187;-95
2022/07/13 12:12:16;;;;;;;1.47;1.13;;;31.60;57.50;;;;;;4908035;28;21051;-94
2022/07/13 12:14:43;;;;;;;1.10;1.10;;;31.70;57.40;;;;;;4937381;28;21063;-91
2022/07/13 12:17:09;;;;;;;2.10;0.97;;;32.00;52.90;;;;;;4908481;28;20442;-92
2022/07/13 12:19:34;;;;;;;1.13;0.77;;;32.10;55.40;;;;;;4902876;28;20937;-91
2022/07/13 12:22:00;;;;;;;1.23;0.60;;;32.40;45.20;;;;;;4911098;28;20190;-93
2022/07/13 12:24:29;;;;;;;1.37;0.90;;;32.90;42.10;;;;;;4900304;28;20276;-93
2022/07/13 12:26:55;;;;;;;1.00;1.00;;;33.10;44.50;;;;;;4912900;28;20194;-92
2022/07/13 12:29:34;;;;;;;2.80;0.80;;;33.00;45.50;;;;;;4895222;28;20532;-92
2022/07/13 12:32:01;;;;;;;1.10;1.00;;;32.90;42.90;;;;;;4901983;28;20187;-93
2022/07/13 12:34:27;;;;;;;5.47;1.13;;;32.60;42.10;;;;;;4928078;28;20450;-92
2022/07/13 12:36:53;;;;;;;1.17;0.70;;;32.30;42.10;;;;;;4925820;28;20454;-93
2022/07/13 12:39:22;;;;;;;1.10;0.90;;;32.30;43.70;;;;;;4906775;28;20205;-92
2022/07/13 12:41:55;;;;;;;1.23;1.00;;;33.00;46.00;;;;;;4914886;28;20673;-92
2022/07/13 12:44:30;;;;;;;0.80;0.80;;;32.00;41.90;;;;;;4925181;28;20453;-94
2022/07/13 12:46:59;;;;;;;1.63;0.80;;;31.70;43.80;;;;;;4953592;28;20480;-94
2022/07/13 12:49:41;;;;;;;0.70;0.70;;;32.00;44.80;;;;;;4911423;28;20446;-92
2022/07/13 12:52:11;;;;;;;0.70;0.70;;;32.40;46.70;;;;;;4917928;28;20531;-91
2022/07/13 12:55:00;;;;;;;1.13;0.80;;;33.20;42.70;;;;;;4933190;28;20854;-94
2022/07/13 12:57:26;;;;;;;0.70;0.70;;;34.10;47.00;;;;;;4927962;28;20487;-91
2022/07/13 13:00:16;;;;;;;0.63;0.63;;;34.70;41.50;;;;;;4911801;28;20492;-91
2022/07/13 13:02:44;;;;;;;0.90;0.77;;;33.60;36.40;;;;;;4915440;28;23724;-93
2022/07/13 13:05:10;;;;;;;0.80;0.80;;;33.70;36.70;;;;;;4932415;28;20456;-91
2022/07/13 13:07:36;;;;;;;0.50;0.50;;;34.20;37.50;;;;;;4914576;28;20445;-90
2022/07/13 13:10:04;;;;;;;1.73;0.90;;;34.40;37.30;;;;;;4904672;28;23551;-91
2022/07/13 13:12:30;;;;;;;0.70;0.70;;;34.70;40.80;;;;;;4906479;28;20442;-93
2022/07/13 13:14:56;;;;;;;2.83;0.83;;;34.90;39.90;;;;;;4905962;28;20450;-93
2022/07/13 13:17:22;;;;;;;0.80;0.80;;;35.10;41.90;;;;;;4913949;28;20843;-93
2022/07/13 13:19:47;;;;;;;0.70;0.70;;;35.00;39.80;;;;;;4909991;28;20638;-91
2022/07/13 13:22:13;;;;;;;1.47;0.87;;;35.70;44.40;;;;;;4912001;28;20187;-94
2022/07/13 13:24:39;;;;;;;0.73;0.73;;;36.20;35.20;;;;;;4925317;28;21327;-89
2022/07/13 13:27:05;;;;;;;2.40;0.70;;;35.80;35.50;;;;;;4915102;28;20202;-94
2022/07/13 13:32:24;;;;;;;0.63;0.63;;;35.20;35.90;;;;;;4926366;28;20685;-93
2022/07/13 13:34:50;;;;;;;2.50;0.70;;;34.20;35.30;;;;;;4909400;28;20441;-94
2022/07/13 13:37:16;;;;;;;0.73;0.73;;;33.80;35.00;;;;;;4899062;28;20839;-91
2022/07/13 13:39:45;;;;;;;0.60;0.60;;;33.80;33.60;;;;;;4898089;29;20849;-95